Time;durP1;ratioP1;P1;durP2;ratioP2;P2;SDS_P1;SDS_P2;PMS_P1;PMS_P2;Temp;Humidity;BMP_temperature;BMP_pressure;BME280_temperature;BME280_humidity;BME280_pressure;Samples;Min_cycle;Max_cycle;Signal;HPM_P1;HPM_P2
2023/11/10 00:00:12;;;;;;;21.77;19.63;;;;;;;;;;5067082;23;20033;-61
2023/11/10 00:02:38;;;;;;;21.52;19.42;;;;;;;;;;5056485;28;20048;-55
2023/11/10 00:05:05;;;;;;;22.13;19.70;;;;;;;;;;5038823;28;20025;-60
2023/11/10 00:07:31;;;;;;;21.45;19.38;;;;;;;;;;5056952;28;20024;-61
2023/11/10 00:09:57;;;;;;;22.67;20.38;;;;;;;;;;5056976;28;20025;-60
2023/11/10 00:12:23;;;;;;;20.75;18.75;;;;;;;;;;5054956;28;20521;-62
2023/11/10 00:14:49;;;;;;;21.30;19.25;;;;;;;;;;5057029;28;20025;-60
2023/11/10 00:17:17;;;;;;;20.50;18.50;;;;;;;;;;5057009;28;20033;-60
2023/11/10 00:19:43;;;;;;;20.90;18.90;;;;;;;;;;5057050;28;20047;-60
2023/11/10 00:22:12;;;;;;;20.33;18.23;;;;;;;;;;5058361;28;20024;-59
2023/11/10 00:24:45;;;;;;;20.48;18.48;;;;;;;;;;5055490;28;20025;-60
2023/11/10 00:27:13;;;;;;;18.00;14.95;;;;;;;;;;5039898;28;20013;-60
2023/11/10 00:29:40;;;;;;;;;;;;;;;;;;5056884;28;20029;-60
2023/11/10 00:32:06;;;;;;;16.73;13.55;;;;;;;;;;5058335;28;19904;-60
2023/11/10 00:34:32;;;;;;;16.30;12.88;;;;;;;;;;5052664;28;20034;-59
2023/11/10 00:36:58;;;;;;;15.40;12.40;;;;;;;;;;5059170;28;20114;-61
2023/11/10 00:39:24;;;;;;;19.90;11.25;;;;;;;;;;5058875;28;20029;-58
2023/11/10 00:41:50;;;;;;;19.98;11.40;;;;;;;;;;5058225;28;20021;-60
2023/11/10 00:44:16;;;;;;;17.60;11.80;;;;;;;;;;5058942;28;20121;-61
2023/11/10 00:46:42;;;;;;;16.02;10.90;;;;;;;;;;5058005;28;20037;-61
2023/11/10 00:49:09;;;;;;;15.77;10.50;;;;;;;;;;5057790;28;20028;-60
2023/11/10 00:51:36;;;;;;;15.93;9.68;;;;;;;;;;5057976;28;20046;-58
2023/11/10 00:54:02;;;;;;;15.80;10.63;;;;;;;;;;5073890;28;20037;-60
2023/11/10 00:56:28;;;;;;;15.63;9.68;;;;;;;;;;5057852;28;20085;-60
2023/11/10 00:58:54;;;;;;;16.33;9.55;;;;;;;;;;5057118;28;20103;-60
2023/11/10 01:01:20;;;;;;;16.48;9.20;;;;;;;;;;5057419;28;20025;-62
2023/11/10 01:03:46;;;;;;;14.68;9.80;;;;;;;;;;5058567;28;20086;-60
2023/11/10 01:06:12;;;;;;;16.30;9.52;;;;;;;;;;5056811;28;20020;-60
2023/11/10 01:08:38;;;;;;;16.25;9.35;;;;;;;;;;5058485;28;20156;-60
2023/11/10 01:11:04;;;;;;;16.35;9.05;;;;;;;;;;5057576;28;20032;-61
2023/11/10 01:13:32;;;;;;;15.48;9.05;;;;;;;;;;5057572;28;20032;-60
2023/11/10 01:15:58;;;;;;;14.40;8.73;;;;;;;;;;5057305;28;20040;-60
2023/11/10 01:18:24;;;;;;;16.45;8.90;;;;;;;;;;5057925;28;20021;-59
2023/11/10 01:20:50;;;;;;;15.43;8.90;;;;;;;;;;5057670;28;20043;-58
2023/11/10 01:23:16;;;;;;;16.77;8.90;;;;;;;;;;5056990;28;20025;-58
2023/11/10 01:25:42;;;;;;;16.58;9.10;;;;;;;;;;5057952;28;20033;-60
2023/11/10 01:28:09;;;;;;;15.43;8.60;;;;;;;;;;5058796;28;20081;-59
2023/11/10 01:30:35;;;;;;;14.73;8.65;;;;;;;;;;5057644;28;20086;-59
2023/11/10 01:33:01;;;;;;;14.57;8.45;;;;;;;;;;5058667;28;20033;-61
2023/11/10 01:35:27;;;;;;;16.33;9.40;;;;;;;;;;5058611;28;20021;-61
2023/11/10 01:37:53;;;;;;;18.13;9.40;;;;;;;;;;5059177;28;20390;-63
2023/11/10 01:40:19;;;;;;;15.20;8.60;;;;;;;;;;5058465;28;20025;-61
2023/11/10 01:42:45;;;;;;;16.15;8.80;;;;;;;;;;5057120;28;20017;-62
2023/11/10 01:45:11;;;;;;;14.38;8.55;;;;;;;;;;5059428;28;20032;-58
2023/11/10 01:47:39;;;;;;;15.90;9.32;;;;;;;;;;5058280;28;20013;-61
2023/11/10 01:50:05;;;;;;;14.55;9.02;;;;;;;;;;5056427;28;20025;-61
2023/11/10 01:52:31;;;;;;;15.82;8.60;;;;;;;;;;5056825;28;20547;-61
2023/11/10 01:54:58;;;;;;;15.15;8.63;;;;;;;;;;5058649;28;20159;-61
2023/11/10 01:57:25;;;;;;;15.75;8.75;;;;;;;;;;5057401;28;20118;-61
2023/11/10 01:59:51;;;;;;;15.13;8.52;;;;;;;;;;5057552;28;20027;-62
2023/11/10 02:02:17;;;;;;;13.75;8.40;;;;;;;;;;5059256;28;20395;-63
2023/11/10 02:04:43;;;;;;;14.65;8.63;;;;;;;;;;5062364;28;20025;-61
2023/11/10 02:07:09;;;;;;;15.93;8.90;;;;;;;;;;5062169;28;20035;-61
2023/11/10 02:09:35;;;;;;;15.57;8.82;;;;;;;;;;5060816;28;20036;-61
2023/11/10 02:12:01;;;;;;;13.75;8.07;;;;;;;;;;5060819;28;20028;-61
2023/11/10 02:14:27;;;;;;;15.93;8.45;;;;;;;;;;5063060;28;20028;-61
2023/11/10 02:16:53;;;;;;;16.10;8.50;;;;;;;;;;5061856;28;20032;-61
2023/11/10 02:19:19;;;;;;;14.88;8.10;;;;;;;;;;5060075;28;20051;-62
2023/11/10 02:21:45;;;;;;;14.10;8.50;;;;;;;;;;5061517;28;20112;-62
2023/11/10 02:24:13;;;;;;;14.55;8.55;;;;;;;;;;5062380;28;20028;-62
2023/11/10 02:26:39;;;;;;;15.70;8.60;;;;;;;;;;5062489;28;20033;-62
2023/11/10 02:29:05;;;;;;;17.60;9.93;;;;;;;;;;5060573;28;20032;-61
2023/11/10 02:31:31;;;;;;;17.00;8.85;;;;;;;;;;5061906;28;20029;-62
2023/11/10 02:33:57;;;;;;;14.93;8.93;;;;;;;;;;5060359;28;20029;-61
2023/11/10 02:36:23;;;;;;;15.38;9.35;;;;;;;;;;5061975;28;20024;-61
2023/11/10 02:38:50;;;;;;;15.52;8.90;;;;;;;;;;5062172;28;20481;-60
2023/11/10 02:41:16;;;;;;;16.13;8.80;;;;;;;;;;5059949;28;20495;-62
2023/11/10 02:43:42;;;;;;;16.05;8.38;;;;;;;;;;5061806;28;20060;-61
2023/11/10 02:46:08;;;;;;;13.70;8.30;;;;;;;;;;5062527;28;20025;-62
2023/11/10 02:48:34;;;;;;;15.93;8.75;;;;;;;;;;5062734;28;20372;-61
2023/11/10 02:51:00;;;;;;;15.48;8.50;;;;;;;;;;5059538;28;20036;-61
2023/11/10 02:53:26;;;;;;;15.48;8.05;;;;;;;;;;5061659;28;20021;-61
2023/11/10 02:55:52;;;;;;;14.98;8.00;;;;;;;;;;5061737;28;20407;-62
2023/11/10 02:58:18;;;;;;;15.30;7.97;;;;;;;;;;5061298;28;20025;-61
2023/11/10 03:00:44;;;;;;;13.98;7.78;;;;;;;;;;5060565;28;20070;-62
2023/11/10 03:03:14;;;;;;;14.63;8.30;;;;;;;;;;5060086;28;20025;-62
2023/11/10 03:05:40;;;;;;;14.40;8.15;;;;;;;;;;5062257;28;20028;-62
2023/11/10 03:08:07;;;;;;;14.63;8.20;;;;;;;;;;5060532;28;20139;-62
2023/11/10 03:10:33;;;;;;;13.82;8.32;;;;;;;;;;5060050;28;20033;-62
2023/11/10 03:12:59;;;;;;;14.77;8.25;;;;;;;;;;5061495;28;20063;-61
2023/11/10 03:15:26;;;;;;;15.32;8.20;;;;;;;;;;5060427;28;20025;-61
2023/11/10 03:17:53;;;;;;;16.75;8.60;;;;;;;;;;5061056;28;20025;-62
2023/11/10 03:20:19;;;;;;;14.80;8.18;;;;;;;;;;5061109;28;20033;-62
2023/11/10 03:22:45;;;;;;;17.88;9.18;;;;;;;;;;5060442;28;20017;-62
2023/11/10 03:25:11;;;;;;;14.40;8.50;;;;;;;;;;5061728;28;20025;-62
2023/11/10 03:27:38;;;;;;;16.15;8.25;;;;;;;;;;5059927;28;20061;-61
2023/11/10 03:30:05;;;;;;;15.35;8.35;;;;;;;;;;5060524;28;20033;-62
2023/11/10 03:32:32;;;;;;;14.90;7.70;;;;;;;;;;5060146;28;20033;-62
2023/11/10 03:34:58;;;;;;;15.07;8.45;;;;;;;;;;5059595;28;20025;-61
2023/11/10 03:37:24;;;;;;;14.00;7.85;;;;;;;;;;5061335;28;20029;-61
2023/11/10 03:39:50;;;;;;;13.80;7.95;;;;;;;;;;5060468;28;20039;-62
2023/11/10 03:42:16;;;;;;;15.75;8.18;;;;;;;;;;5060989;28;20024;-62
2023/11/10 03:44:42;;;;;;;14.00;8.00;;;;;;;;;;5061854;28;20025;-62
2023/11/10 03:47:08;;;;;;;13.95;8.00;;;;;;;;;;5061424;28;20427;-62
2023/11/10 03:49:35;;;;;;;20.77;8.88;;;;;;;;;;5059148;28;20078;-59
2023/11/10 03:52:01;;;;;;;16.50;8.25;;;;;;;;;;5059567;28;20465;-62
2023/11/10 03:54:27;;;;;;;15.32;7.95;;;;;;;;;;5061042;28;20068;-62
2023/11/10 03:56:54;;;;;;;14.05;8.35;;;;;;;;;;5060515;28;20032;-61
2023/11/10 03:59:19;;;;;;;15.80;8.10;;;;;;;;;;5060264;28;20065;-62
2023/11/10 04:01:46;;;;;;;16.33;8.60;;;;;;;;;;5060055;28;20087;-61
2023/11/10 04:04:11;;;;;;;14.50;8.40;;;;;;;;;;5060157;28;20025;-61
2023/11/10 04:06:38;;;;;;;15.43;9.23;;;;;;;;;;5060754;28;20029;-61
2023/11/10 04:09:04;;;;;;;16.65;8.98;;;;;;;;;;5060584;28;20402;-59
2023/11/10 04:11:30;;;;;;;17.80;8.27;;;;;;;;;;5059224;28;20028;-61
2023/11/10 04:13:56;;;;;;;14.95;8.48;;;;;;;;;;5060080;28;20109;-62
2023/11/10 04:16:23;;;;;;;17.17;8.05;;;;;;;;;;5060736;28;20051;-61
2023/11/10 04:18:53;;;;;;;14.25;8.00;;;;;;;;;;5060588;28;20025;-62
2023/11/10 04:21:21;;;;;;;18.98;8.45;;;;;;;;;;5059860;28;20506;-60
2023/11/10 04:23:48;;;;;;;15.45;8.00;;;;;;;;;;5059471;28;20056;-61
2023/11/10 04:26:14;;;;;;;15.40;8.90;;;;;;;;;;5058113;28;20029;-61
2023/11/10 04:28:41;;;;;;;14.48;8.70;;;;;;;;;;5058762;28;20089;-61
2023/11/10 04:31:09;;;;;;;17.05;8.80;;;;;;;;;;5059836;28;20029;-61
2023/11/10 04:33:35;;;;;;;14.55;8.90;;;;;;;;;;5059220;28;20025;-61
2023/11/10 04:36:01;;;;;;;15.40;9.40;;;;;;;;;;5060082;28;20096;-61
2023/11/10 04:38:27;;;;;;;15.20;8.85;;;;;;;;;;5058481;28;20024;-61
2023/11/10 04:40:53;;;;;;;18.25;8.95;;;;;;;;;;5058884;28;20429;-62
2023/11/10 04:43:19;;;;;;;17.13;8.88;;;;;;;;;;5058999;28;20028;-61
2023/11/10 04:45:45;;;;;;;14.13;8.45;;;;;;;;;;5059459;28;20021;-60
2023/11/10 04:48:11;;;;;;;18.17;8.50;;;;;;;;;;5059117;28;20110;-60
2023/11/10 04:50:38;;;;;;;17.55;9.00;;;;;;;;;;5058153;28;20033;-60
2023/11/10 04:53:04;;;;;;;17.13;9.30;;;;;;;;;;5059192;28;20040;-61
2023/11/10 04:55:30;;;;;;;16.70;8.32;;;;;;;;;;5059682;28;20550;-63
2023/11/10 04:57:56;;;;;;;15.75;8.80;;;;;;;;;;5060065;28;20036;-62
2023/11/10 05:00:23;;;;;;;14.73;8.70;;;;;;;;;;5058504;28;20456;-62
2023/11/10 05:02:49;;;;;;;16.05;8.90;;;;;;;;;;5060407;28;20140;-62
2023/11/10 05:05:15;;;;;;;15.05;8.80;;;;;;;;;;5059630;28;20024;-61
2023/11/10 05:07:42;;;;;;;14.80;8.93;;;;;;;;;;5059328;28;20044;-59
2023/11/10 05:10:08;;;;;;;17.08;8.65;;;;;;;;;;5059049;28;20084;-63
2023/11/10 05:12:36;;;;;;;14.63;8.45;;;;;;;;;;5059846;28;20065;-61
2023/11/10 05:15:05;;;;;;;19.23;9.45;;;;;;;;;;5058186;28;20039;-60
2023/11/10 05:17:33;;;;;;;16.67;9.23;;;;;;;;;;5060050;28;20021;-61
2023/11/10 05:20:01;;;;;;;16.88;9.25;;;;;;;;;;5058357;28;20162;-62
2023/11/10 05:22:29;;;;;;;17.40;12.23;;;;;;;;;;5059224;28;20017;-59
2023/11/10 05:24:55;;;;;;;16.48;12.98;;;;;;;;;;5059960;28;20025;-61
2023/11/10 05:27:21;;;;;;;22.05;12.80;;;;;;;;;;5059304;28;20053;-61
2023/11/10 05:29:47;;;;;;;16.42;13.30;;;;;;;;;;5059279;28;20033;-61
2023/11/10 05:32:14;;;;;;;18.25;14.00;;;;;;;;;;5058388;28;20032;-59
2023/11/10 05:34:40;;;;;;;19.85;13.55;;;;;;;;;;5058819;28;20055;-60
2023/11/10 05:37:10;;;;;;;16.98;14.20;;;;;;;;;;5059214;28;20025;-61
2023/11/10 05:39:36;;;;;;;15.90;13.38;;;;;;;;;;5060449;28;20052;-63
2023/11/10 05:42:02;;;;;;;19.40;13.77;;;;;;;;;;5061227;28;20437;-61
2023/11/10 05:44:28;;;;;;;17.23;13.23;;;;;;;;;;5064016;28;20025;-62
2023/11/10 05:46:54;;;;;;;16.98;13.43;;;;;;;;;;5062722;28;20047;-63
2023/11/10 05:49:20;;;;;;;18.10;13.25;;;;;;;;;;5063101;28;20114;-61
2023/11/10 05:51:50;;;;;;;16.30;12.80;;;;;;;;;;5062355;28;20025;-61
2023/11/10 05:54:16;;;;;;;18.27;12.98;;;;;;;;;;5061067;28;20506;-62
2023/11/10 05:56:42;;;;;;;17.27;13.30;;;;;;;;;;5062217;28;20166;-63
2023/11/10 05:59:08;;;;;;;17.35;12.73;;;;;;;;;;5062396;28;20147;-63
2023/11/10 06:01:34;;;;;;;17.02;12.88;;;;;;;;;;5061036;28;20180;-61
2023/11/10 06:04:01;;;;;;;18.58;13.18;;;;;;;;;;5062842;28;20032;-63
2023/11/10 06:06:27;;;;;;;16.38;12.95;;;;;;;;;;5062179;28;20056;-61
2023/11/10 06:08:54;;;;;;;17.35;13.15;;;;;;;;;;5063108;28;20029;-64
2023/11/10 06:11:20;;;;;;;17.05;13.35;;;;;;;;;;5061103;28;20021;-60
2023/11/10 06:13:50;;;;;;;20.40;13.82;;;;;;;;;;5062038;28;20094;-62
2023/11/10 06:16:16;;;;;;;18.00;12.40;;;;;;;;;;5062114;28;20168;-62
2023/11/10 06:18:44;;;;;;;16.10;12.30;;;;;;;;;;5061370;28;20404;-61
2023/11/10 06:21:11;;;;;;;16.60;12.43;;;;;;;;;;5060015;28;20025;-61
2023/11/10 06:23:37;;;;;;;18.27;12.32;;;;;;;;;;5061130;28;20025;-60
2023/11/10 06:26:05;;;;;;;18.48;12.75;;;;;;;;;;5061997;28;20033;-61
2023/11/10 06:28:31;;;;;;;16.63;12.10;;;;;;;;;;5062077;28;20029;-63
2023/11/10 06:30:57;;;;;;;18.90;12.60;;;;;;;;;;5060236;28;20025;-61
2023/11/10 06:33:24;;;;;;;18.17;12.82;;;;;;;;;;5061507;28;20117;-62
2023/11/10 06:35:50;;;;;;;17.55;12.98;;;;;;;;;;5061850;28;20025;-60
2023/11/10 06:38:16;;;;;;;18.90;12.25;;;;;;;;;;5061323;28;20079;-63
2023/11/10 06:40:42;;;;;;;17.20;12.65;;;;;;;;;;5061109;28;20021;-63
2023/11/10 06:43:08;;;;;;;16.67;12.25;;;;;;;;;;5060838;28;20029;-63
2023/11/10 06:45:34;;;;;;;19.70;12.35;;;;;;;;;;5061661;28;20017;-62
2023/11/10 06:48:03;;;;;;;17.58;12.05;;;;;;;;;;5060803;28;20032;-61
2023/11/10 06:50:30;;;;;;;16.17;11.63;;;;;;;;;;5060911;28;20017;-61
2023/11/10 06:52:57;;;;;;;17.95;12.38;;;;;;;;;;5059888;28;20032;-61
2023/11/10 06:55:23;;;;;;;18.17;11.73;;;;;;;;;;5060506;28;20104;-60
2023/11/10 06:57:49;;;;;;;18.92;12.05;;;;;;;;;;5061495;28;20137;-63
2023/11/10 07:00:15;;;;;;;17.00;11.30;;;;;;;;;;5058660;28;20037;-58
2023/11/10 07:02:42;;;;;;;16.58;12.40;;;;;;;;;;5061712;28;20036;-61
2023/11/10 07:05:09;;;;;;;16.70;11.40;;;;;;;;;;5059692;28;20021;-61
2023/11/10 07:07:35;;;;;;;16.02;11.32;;;;;;;;;;5061439;28;20025;-60
2023/11/10 07:10:01;;;;;;;16.23;11.00;;;;;;;;;;5060590;28;20138;-61
2023/11/10 07:12:27;;;;;;;16.77;12.07;;;;;;;;;;5061313;28;20036;-61
2023/11/10 07:14:53;;;;;;;15.98;10.30;;;;;;;;;;5061445;28;20532;-61
2023/11/10 07:17:19;;;;;;;15.57;10.32;;;;;;;;;;5061253;28;20486;-62
2023/11/10 07:19:46;;;;;;;16.15;10.77;;;;;;;;;;5061407;28;20018;-62
2023/11/10 07:22:12;;;;;;;16.15;11.15;;;;;;;;;;5061277;28;20063;-62
2023/11/10 07:24:38;;;;;;;14.95;10.13;;;;;;;;;;5060806;28;20017;-60
2023/11/10 07:27:06;;;;;;;16.58;11.02;;;;;;;;;;5061858;28;20035;-62
2023/11/10 07:29:34;;;;;;;15.77;9.40;;;;;;;;;;5058330;28;20107;-60
2023/11/10 07:32:03;;;;;;;18.20;10.13;;;;;;;;;;5061970;28;20036;-62
2023/11/10 07:34:29;;;;;;;17.30;9.75;;;;;;;;;;5061312;28;20093;-62
2023/11/10 07:36:57;;;;;;;19.38;10.93;;;;;;;;;;5060623;28;20021;-63
2023/11/10 07:39:23;;;;;;;16.47;9.40;;;;;;;;;;5058912;28;20025;-61
2023/11/10 07:41:49;;;;;;;16.88;9.27;;;;;;;;;;5059912;28;20031;-63
2023/11/10 07:44:15;;;;;;;15.68;9.45;;;;;;;;;;5058693;28;20045;-62
2023/11/10 07:46:41;;;;;;;14.80;9.32;;;;;;;;;;5061001;28;20040;-62
2023/11/10 07:49:08;;;;;;;17.00;9.18;;;;;;;;;;5057185;28;20036;-62
2023/11/10 07:51:34;;;;;;;23.85;9.77;;;;;;;;;;5050345;28;20491;-60
2023/11/10 07:54:00;;;;;;;17.30;9.07;;;;;;;;;;5053697;28;20096;-63
2023/11/10 07:56:26;;;;;;;16.42;9.30;;;;;;;;;;5040750;28;20179;-63
2023/11/10 07:58:52;;;;;;;14.38;8.70;;;;;;;;;;5051649;28;20103;-62
2023/11/10 08:01:19;;;;;;;16.02;9.07;;;;;;;;;;5058600;28;20604;-61
2023/11/10 08:03:45;;;;;;;16.13;9.30;;;;;;;;;;5060176;28;20096;-60
2023/11/10 08:06:12;;;;;;;15.68;9.10;;;;;;;;;;5059050;28;20464;-60
2023/11/10 08:08:39;;;;;;;15.75;8.95;;;;;;;;;;5023136;28;20120;-61
2023/11/10 08:11:05;;;;;;;16.15;9.00;;;;;;;;;;5040040;28;20021;-61
2023/11/10 08:13:34;;;;;;;15.13;9.13;;;;;;;;;;5040321;28;20028;-60
2023/11/10 08:16:00;;;;;;;15.88;9.38;;;;;;;;;;5040685;28;20052;-61
2023/11/10 08:18:26;;;;;;;15.85;9.27;;;;;;;;;;5040297;28;20080;-61
2023/11/10 08:20:52;;;;;;;15.68;8.50;;;;;;;;;;5032820;28;20052;-53
2023/11/10 08:23:18;;;;;;;14.63;8.32;;;;;;;;;;5031078;28;20047;-57
2023/11/10 08:25:45;;;;;;;17.15;8.80;;;;;;;;;;5048827;28;20039;-56
2023/11/10 08:28:11;;;;;;;17.10;9.50;;;;;;;;;;5049037;28;20086;-53
2023/11/10 08:30:37;;;;;;;15.82;8.48;;;;;;;;;;5048566;28;20029;-53
2023/11/10 08:33:03;;;;;;;14.98;9.13;;;;;;;;;;5049241;28;20059;-56
2023/11/10 08:35:29;;;;;;;14.65;8.00;;;;;;;;;;5048766;28;20150;-55
2023/11/10 08:37:55;;;;;;;16.13;8.43;;;;;;;;;;5048765;28;20021;-52
2023/11/10 08:40:21;;;;;;;20.13;8.80;;;;;;;;;;5047969;28;20082;-57
2023/11/10 08:42:48;;;;;;;18.10;8.98;;;;;;;;;;5048563;28;20071;-54
2023/11/10 08:45:14;;;;;;;14.52;8.43;;;;;;;;;;5048634;28;20021;-55
2023/11/10 08:47:42;;;;;;;13.85;8.40;;;;;;;;;;5048798;28;20041;-49
2023/11/10 08:50:11;;;;;;;15.10;8.77;;;;;;;;;;5047556;28;20032;-55
2023/11/10 08:52:40;;;;;;;15.10;8.80;;;;;;;;;;5048250;28;20506;-56
2023/11/10 08:55:07;;;;;;;14.25;8.70;;;;;;;;;;5048604;28;20029;-50
2023/11/10 08:57:34;;;;;;;18.67;9.55;;;;;;;;;;5048506;28;20033;-50
2023/11/10 09:00:00;;;;;;;16.77;8.82;;;;;;;;;;5047589;28;20031;-53
2023/11/10 09:02:27;;;;;;;13.90;8.10;;;;;;;;;;5048295;28;20029;-51
2023/11/10 09:04:53;;;;;;;14.93;8.45;;;;;;;;;;5048353;28;20025;-51
2023/11/10 09:07:19;;;;;;;15.02;8.80;;;;;;;;;;5048487;28;20029;-57
2023/11/10 09:09:45;;;;;;;14.50;8.30;;;;;;;;;;5047804;28;20021;-55
2023/11/10 09:12:11;;;;;;;15.13;8.75;;;;;;;;;;5049127;28;20021;-55
2023/11/10 09:14:37;;;;;;;14.10;8.02;;;;;;;;;;5052556;28;20496;-54
2023/11/10 09:17:03;;;;;;;14.05;8.18;;;;;;;;;;5052504;28;20079;-50
2023/11/10 09:19:29;;;;;;;16.02;8.40;;;;;;;;;;5051570;28;20040;-56
2023/11/10 09:21:58;;;;;;;17.20;8.93;;;;;;;;;;5051600;28;20469;-50
2023/11/10 09:24:24;;;;;;;15.65;8.27;;;;;;;;;;5049389;28;20075;-54
2023/11/10 09:26:50;;;;;;;14.20;8.52;;;;;;;;;;5032709;28;20056;-57
2023/11/10 09:29:16;;;;;;;14.50;8.60;;;;;;;;;;5031040;28;20096;-54
2023/11/10 09:31:42;;;;;;;14.25;8.43;;;;;;;;;;5031836;28;20100;-56
2023/11/10 09:34:08;;;;;;;17.40;8.10;;;;;;;;;;5032569;28;20464;-55
2023/11/10 09:36:34;;;;;;;15.27;8.80;;;;;;;;;;5031927;28;20041;-50
2023/11/10 09:39:01;;;;;;;14.32;8.35;;;;;;;;;;5032143;28;20021;-54
2023/11/10 09:41:28;;;;;;;14.00;8.50;;;;;;;;;;5031511;28;20096;-54
2023/11/10 09:43:54;;;;;;;14.75;8.43;;;;;;;;;;5032350;28;20038;-51
2023/11/10 09:46:21;;;;;;;14.75;8.23;;;;;;;;;;5031971;28;20041;-56
2023/11/10 09:48:48;;;;;;;14.05;7.82;;;;;;;;;;5031964;28;20037;-52
2023/11/10 09:51:14;;;;;;;14.02;8.10;;;;;;;;;;5031248;28;20061;-51
2023/11/10 09:53:41;;;;;;;16.58;8.82;;;;;;;;;;5051827;28;20025;-53
2023/11/10 09:56:08;;;;;;;17.67;8.63;;;;;;;;;;5051433;28;20029;-52
2023/11/10 09:58:37;;;;;;;15.40;8.50;;;;;;;;;;5051502;28;20033;-53
2023/11/10 10:01:03;;;;;;;15.23;8.43;;;;;;;;;;5050739;28;20037;-50
2023/11/10 10:03:29;;;;;;;16.17;8.70;;;;;;;;;;5051388;28;20025;-54
2023/11/10 10:05:56;;;;;;;16.88;9.55;;;;;;;;;;5052099;28;20080;-53
2023/11/10 10:08:22;;;;;;;18.65;9.05;;;;;;;;;;5052865;28;20029;-50
2023/11/10 10:10:53;;;;;;;15.25;8.45;;;;;;;;;;5052178;28;20087;-55
2023/11/10 10:13:19;;;;;;;14.57;8.40;;;;;;;;;;5051736;28;20434;-49
2023/11/10 10:15:45;;;;;;;15.65;8.82;;;;;;;;;;5052811;28;20104;-54
2023/11/10 10:18:14;;;;;;;14.98;8.40;;;;;;;;;;5052375;28;20127;-52
2023/11/10 10:20:40;;;;;;;16.50;8.13;;;;;;;;;;5054825;28;20067;-58
2023/11/10 10:23:07;;;;;;;15.60;8.77;;;;;;;;;;5054451;28;20105;-53
2023/11/10 10:25:33;;;;;;;14.73;8.60;;;;;;;;;;5053051;28;20029;-50
2023/11/10 10:28:02;;;;;;;15.48;8.30;;;;;;;;;;5053636;28;20023;-51
2023/11/10 10:30:28;;;;;;;;;;;;;;;;;;5050778;28;20487;-51
2023/11/10 10:32:54;;;;;;;16.00;8.73;;;;;;;;;;5050772;28;20171;-53
2023/11/10 10:35:21;;;;;;;17.30;9.07;;;;;;;;;;5051148;28;20048;-51
2023/11/10 10:37:50;;;;;;;14.52;8.63;;;;;;;;;;5050894;28;20033;-49
2023/11/10 10:40:16;;;;;;;16.48;8.60;;;;;;;;;;5050357;28;20028;-53
2023/11/10 10:42:43;;;;;;;15.80;8.85;;;;;;;;;;5050031;28;20021;-52
2023/11/10 10:45:10;;;;;;;15.82;8.90;;;;;;;;;;5050709;28;20485;-55
2023/11/10 10:47:39;;;;;;;15.43;9.07;;;;;;;;;;5047040;28;20034;-59
2023/11/10 10:50:07;;;;;;;14.20;9.05;;;;;;;;;;5043850;28;20430;-54
2023/11/10 10:52:33;;;;;;;15.35;9.02;;;;;;;;;;5047503;28;20068;-57
2023/11/10 10:55:01;;;;;;;19.13;9.60;;;;;;;;;;5042964;28;20025;-56
2023/11/10 10:57:27;;;;;;;15.85;8.90;;;;;;;;;;5038239;28;20025;-54
2023/11/10 10:59:54;;;;;;;15.23;9.35;;;;;;;;;;5027430;28;20109;-58
2023/11/10 11:02:22;;;;;;;14.70;9.38;;;;;;;;;;5030802;28;20104;-57
2023/11/10 11:04:48;;;;;;;21.27;9.68;;;;;;;;;;5030509;28;20042;-58
2023/11/10 11:07:30;;;;;;;15.18;8.82;;;;;;;;;;5041041;28;20071;-54
2023/11/10 11:10:20;;;;;;;15.10;8.70;;;;;;;;;;5040087;28;20479;-55
2023/11/10 11:12:54;;;;;;;17.65;9.00;;;;;;;;;;5027329;28;20040;-53
2023/11/10 11:15:31;;;;;;;16.48;9.25;;;;;;;;;;5037394;28;20426;-55
2023/11/10 11:18:33;;;;;;;19.38;8.95;;;;;;;;;;5038678;28;20030;-57
2023/11/10 11:20:59;;;;;;;15.43;9.00;;;;;;;;;;4966675;28;20042;-51
2023/11/10 11:23:25;;;;;;;16.30;8.57;;;;;;;;;;5028868;28;20040;-57
2023/11/10 11:26:00;;;;;;;16.55;9.20;;;;;;;;;;5049474;28;20036;-57
2023/11/10 11:28:28;;;;;;;16.15;9.18;;;;;;;;;;5049585;28;20032;-54
2023/11/10 11:31:06;;;;;;;16.05;9.98;;;;;;;;;;5048879;28;20021;-55
2023/11/10 11:33:32;;;;;;;17.15;10.57;;;;;;;;;;5049375;28;20036;-57
2023/11/10 11:36:00;;;;;;;15.85;9.55;;;;;;;;;;5048347;28;20048;-54
2023/11/10 11:38:27;;;;;;;15.38;8.45;;;;;;;;;;5049434;28;20032;-56
2023/11/10 11:40:56;;;;;;;16.23;9.27;;;;;;;;;;5049068;28;20406;-54
2023/11/10 11:43:26;;;;;;;15.40;8.90;;;;;;;;;;5050254;28;20086;-56
2023/11/10 11:45:56;;;;;;;16.55;9.32;;;;;;;;;;5049631;28;20405;-55
2023/11/10 11:48:23;;;;;;;14.93;8.98;;;;;;;;;;5049491;28;20391;-53
2023/11/10 11:50:52;;;;;;;15.07;9.25;;;;;;;;;;5049544;28;20503;-56
2023/11/10 11:53:19;;;;;;;15.55;9.30;;;;;;;;;;5046836;28;20029;-59
2023/11/10 11:55:49;;;;;;;14.80;9.20;;;;;;;;;;5057887;28;20514;-52
2023/11/10 11:58:15;;;;;;;15.60;9.10;;;;;;;;;;5049861;28;20028;-56
2023/11/10 12:00:41;;;;;;;15.05;8.57;;;;;;;;;;5043840;28;20109;-56
2023/11/10 12:03:07;;;;;;;15.00;9.02;;;;;;;;;;5029446;28;20041;-55
2023/11/10 12:05:34;;;;;;;15.63;8.68;;;;;;;;;;5029272;28;20018;-55
2023/11/10 12:08:01;;;;;;;18.92;8.75;;;;;;;;;;5028875;28;20491;-50
2023/11/10 12:10:27;;;;;;;14.63;8.38;;;;;;;;;;5028549;28;20119;-60
2023/11/10 12:12:55;;;;;;;15.35;8.57;;;;;;;;;;5028924;28;20054;-56
2023/11/10 12:15:22;;;;;;;15.73;8.30;;;;;;;;;;5040438;28;20025;-57
2023/11/10 12:17:49;;;;;;;14.18;8.43;;;;;;;;;;5047993;28;20047;-55
2023/11/10 12:20:15;;;;;;;15.88;8.70;;;;;;;;;;5047387;28;20064;-53
2023/11/10 12:22:56;;;;;;;14.20;8.18;;;;;;;;;;5048253;28;20149;-54
2023/11/10 12:25:22;;;;;;;17.67;8.57;;;;;;;;;;5048551;28;20047;-56
2023/11/10 12:27:51;;;;;;;16.35;8.73;;;;;;;;;;5048283;28;20029;-56
2023/11/10 12:30:18;;;;;;;17.45;8.63;;;;;;;;;;5048029;28;20097;-56
2023/11/10 12:32:45;;;;;;;16.88;9.05;;;;;;;;;;5048318;28;20025;-52
2023/11/10 12:35:12;;;;;;;17.92;8.85;;;;;;;;;;5048568;28;20112;-52
2023/11/10 12:37:38;;;;;;;16.27;8.30;;;;;;;;;;5048520;28;20025;-52
2023/11/10 12:40:11;;;;;;;16.75;8.45;;;;;;;;;;5047583;28;20029;-53
2023/11/10 12:42:39;;;;;;;14.85;8.18;;;;;;;;;;5048263;28;20434;-56
2023/11/10 12:45:11;;;;;;;19.25;9.20;;;;;;;;;;5048346;28;20028;-55
2023/11/10 12:47:39;;;;;;;17.67;8.57;;;;;;;;;;5048273;28;20040;-51
2023/11/10 12:50:24;;;;;;;17.30;8.43;;;;;;;;;;5047391;28;20021;-57
2023/11/10 12:52:51;;;;;;;16.13;8.48;;;;;;;;;;5048513;28;20645;-57
2023/11/10 12:55:17;;;;;;;15.70;8.07;;;;;;;;;;5048372;28;20037;-54
2023/11/10 12:57:46;;;;;;;15.57;8.10;;;;;;;;;;5048257;28;20418;-55
2023/11/10 13:00:13;;;;;;;14.93;8.20;;;;;;;;;;5047622;28;20029;-55
2023/11/10 13:02:42;;;;;;;15.25;7.60;;;;;;;;;;5047204;28;20060;-56
2023/11/10 13:05:10;;;;;;;14.77;7.70;;;;;;;;;;5048379;28;20017;-51
2023/11/10 13:07:36;;;;;;;16.02;7.97;;;;;;;;;;5047886;28;20021;-54
2023/11/10 13:10:10;;;;;;;15.38;7.82;;;;;;;;;;5046983;28;20033;-54
2023/11/10 13:12:38;;;;;;;15.57;8.10;;;;;;;;;;5047407;28;20043;-56
2023/11/10 13:15:04;;;;;;;20.00;8.40;;;;;;;;;;5048307;28;20051;-55
2023/11/10 13:17:31;;;;;;;14.70;8.07;;;;;;;;;;5048123;28;20056;-52
2023/11/10 13:19:59;;;;;;;13.55;7.70;;;;;;;;;;5047324;28;20088;-53
2023/11/10 13:22:25;;;;;;;14.30;7.97;;;;;;;;;;5048408;28;20437;-53
2023/11/10 13:24:51;;;;;;;16.33;7.63;;;;;;;;;;5048477;28;20096;-55
2023/11/10 13:27:23;;;;;;;16.77;8.10;;;;;;;;;;5048184;28;20032;-52
2023/11/10 13:29:49;;;;;;;15.40;8.00;;;;;;;;;;5047345;28;20051;-57
2023/11/10 13:32:16;;;;;;;16.02;7.72;;;;;;;;;;5047822;28;20025;-55
2023/11/10 13:34:45;;;;;;;16.30;7.90;;;;;;;;;;5048118;28;20434;-55
2023/11/10 13:37:14;;;;;;;15.45;7.90;;;;;;;;;;5047810;28;20044;-54
2023/11/10 13:39:40;;;;;;;;;;;;;;;;;;5048352;28;20029;-55
2023/11/10 13:42:07;;;;;;;15.18;7.93;;;;;;;;;;5048045;28;19919;-52
2023/11/10 13:44:33;;;;;;;14.50;8.00;;;;;;;;;;5048206;28;20364;-56
2023/11/10 13:46:59;;;;;;;16.40;8.40;;;;;;;;;;5048064;28;20029;-51
2023/11/10 13:49:26;;;;;;;16.42;8.23;;;;;;;;;;5046440;28;20943;-55
2023/11/10 13:51:52;;;;;;;14.38;8.45;;;;;;;;;;5047183;28;20021;-54
2023/11/10 13:54:18;;;;;;;16.75;8.05;;;;;;;;;;5048166;28;20441;-52
2023/11/10 13:56:45;;;;;;;16.67;8.15;;;;;;;;;;5046678;28;20090;-51
2023/11/10 13:59:11;;;;;;;15.02;8.50;;;;;;;;;;5049428;28;20040;-53
2023/11/10 14:01:37;;;;;;;14.40;8.70;;;;;;;;;;5051080;28;20043;-58
2023/11/10 14:04:03;;;;;;;16.70;8.82;;;;;;;;;;5051667;28;20021;-53
2023/11/10 14:06:30;;;;;;;16.90;8.85;;;;;;;;;;5051219;28;20032;-52
2023/11/10 14:08:56;;;;;;;16.67;8.82;;;;;;;;;;5050030;28;20029;-56
2023/11/10 14:11:24;;;;;;;17.83;9.50;;;;;;;;;;5050974;28;20048;-56
2023/11/10 14:13:50;;;;;;;16.45;10.13;;;;;;;;;;5051389;28;20625;-50
2023/11/10 14:16:16;;;;;;;18.35;9.52;;;;;;;;;;5051431;28;20025;-51
2023/11/10 14:18:42;;;;;;;16.83;8.80;;;;;;;;;;5051855;28;20033;-51
2023/11/10 14:21:09;;;;;;;18.63;9.38;;;;;;;;;;5050738;28;20458;-52
2023/11/10 14:23:35;;;;;;;18.08;9.65;;;;;;;;;;5051223;28;20029;-55
2023/11/10 14:26:01;;;;;;;15.55;8.88;;;;;;;;;;5051309;28;20471;-51